createdAt,value
2019-05-21T00:01:34.914Z,92.30
2019-05-21T00:04:05.637Z,92.70
2019-05-21T00:06:35.691Z,92.40
2019-05-21T00:09:06.168Z,92.60
2019-05-21T00:11:35.910Z,92.80
2019-05-21T00:14:05.654Z,92.90
2019-05-21T00:16:35.249Z,93.00
2019-05-21T00:19:04.871Z,93.00
2019-05-21T00:21:34.574Z,93.10
2019-05-21T00:24:04.605Z,93.20
2019-05-21T00:26:34.602Z,93.20
2019-05-21T00:29:40.828Z,93.30
2019-05-21T00:32:47.233Z,93.40
2019-05-21T00:35:53.604Z,93.30
2019-05-21T00:38:59.765Z,93.30
2019-05-21T00:42:01.437Z,93.40
2019-05-21T00:44:37.656Z,93.30
2019-05-21T00:47:07.812Z,93.50
2019-05-21T00:49:37.527Z,93.50
2019-05-21T00:52:09.008Z,93.30
2019-05-21T00:54:38.339Z,93.60
2019-05-21T00:57:08.215Z,93.70
2019-05-21T00:59:37.904Z,93.70
2019-05-21T01:02:07.630Z,93.90
2019-05-21T01:04:37.329Z,93.90
2019-05-21T01:07:06.919Z,93.90
2019-05-21T01:09:36.499Z,94.00
2019-05-21T01:12:06.153Z,94.00
2019-05-21T01:14:35.979Z,94.20
2019-05-21T01:17:05.749Z,94.30
2019-05-21T01:19:35.477Z,94.30
2019-05-21T01:22:05.597Z,94.50
2019-05-21T01:24:35.293Z,94.60
2019-05-21T01:27:04.827Z,94.40
2019-05-21T01:29:35.272Z,94.50
2019-05-21T01:32:07.053Z,94.60
2019-05-21T01:34:36.833Z,94.50
2019-05-21T01:37:06.828Z,94.40
2019-05-21T01:39:36.602Z,94.40
2019-05-21T01:42:06.418Z,94.40
2019-05-21T01:44:36.037Z,94.50
2019-05-21T01:47:05.519Z,94.70
2019-05-21T01:49:35.099Z,94.80
2019-05-21T01:52:04.710Z,94.70
2019-05-21T01:54:35.620Z,94.70
2019-05-21T01:57:05.381Z,94.60
2019-05-21T01:59:35.263Z,94.70
2019-05-21T02:02:04.975Z,94.70
2019-05-21T02:04:34.876Z,94.90
2019-05-21T02:07:07.104Z,94.90
2019-05-21T02:09:38.610Z,94.90
2019-05-21T02:12:10.724Z,95.10
2019-05-21T02:14:39.750Z,95.20
2019-05-21T02:17:15.632Z,95.30
2019-05-21T02:19:45.280Z,95.40
2019-05-21T02:22:15.326Z,95.40
2019-05-21T02:24:45.146Z,95.80
2019-05-21T02:27:14.734Z,95.50
2019-05-21T02:29:44.556Z,95.60
2019-05-21T02:32:14.166Z,95.60
2019-05-21T02:34:43.797Z,95.60
2019-05-21T02:37:13.493Z,95.70
2019-05-21T02:39:43.023Z,96.00
2019-05-21T02:42:12.614Z,96.50
2019-05-21T02:44:42.415Z,96.70
2019-05-21T02:47:12.021Z,96.80
2019-05-21T02:49:41.428Z,96.10
2019-05-21T02:52:10.939Z,95.90
2019-05-21T02:54:42.386Z,96.10
2019-05-21T02:57:11.812Z,96.10
2019-05-21T02:59:43.229Z,96.60
2019-05-21T03:02:30.733Z,96.40
2019-05-21T03:05:00.439Z,96.10
2019-05-21T03:07:29.966Z,97.50
2019-05-21T03:09:59.776Z,97.10
2019-05-21T03:12:29.481Z,97.30
2019-05-21T03:14:59.053Z,97.80
2019-05-21T03:17:28.991Z,97.90
2019-05-21T03:19:58.598Z,97.70
2019-05-21T03:22:28.248Z,97.60
2019-05-21T03:25:02.053Z,97.60
2019-05-21T03:27:29.215Z,97.60
2019-05-21T03:29:58.818Z,98.00
2019-05-21T03:32:28.619Z,97.70
2019-05-21T03:34:58.630Z,97.70
2019-05-21T03:37:28.472Z,97.40
2019-05-21T03:39:58.272Z,97.30
2019-05-21T03:42:27.967Z,97.00
2019-05-21T03:45:00.536Z,96.90
2019-05-21T03:47:29.435Z,96.70
2019-05-21T03:49:59.046Z,96.80
2019-05-21T03:52:29.047Z,96.80
2019-05-21T03:55:02.792Z,96.60
2019-05-21T03:57:30.038Z,96.70
2019-05-21T03:59:59.572Z,96.90
2019-05-21T04:02:29.253Z,97.00
2019-05-21T04:04:58.922Z,97.10
2019-05-21T04:07:29.178Z,97.30
2019-05-21T04:09:58.774Z,98.00
2019-05-21T04:12:28.703Z,97.30
2019-05-21T04:15:02.815Z,97.30
2019-05-21T04:17:34.976Z,97.30
2019-05-21T04:20:08.376Z,97.30
2019-05-21T04:22:39.794Z,97.20
2019-05-21T04:25:09.937Z,97.10
2019-05-21T04:27:39.678Z,96.90
2019-05-21T04:30:11.286Z,96.60
2019-05-21T04:32:41.960Z,96.40
2019-05-21T04:35:11.638Z,96.10
2019-05-21T04:37:44.166Z,95.80
2019-05-21T04:40:13.746Z,95.60
2019-05-21T04:42:43.677Z,95.50
2019-05-21T04:45:13.196Z,95.60
2019-05-21T04:47:42.875Z,95.60
2019-05-21T04:50:12.570Z,95.60
2019-05-21T04:52:42.228Z,95.50
2019-05-21T04:55:11.855Z,95.30
2019-05-21T04:57:41.710Z,95.10
2019-05-21T05:00:13.156Z,95.10
2019-05-21T05:02:43.195Z,95.00
2019-05-21T05:05:12.744Z,94.90
2019-05-21T05:07:43.688Z,94.80
2019-05-21T05:10:13.763Z,94.60
2019-05-21T05:12:43.646Z,94.40
2019-05-21T05:15:13.123Z,94.30
2019-05-21T05:17:42.729Z,94.10
2019-05-21T05:20:12.205Z,93.90
2019-05-21T05:22:41.864Z,93.50
2019-05-21T05:25:11.378Z,93.30
2019-05-21T05:27:40.785Z,93.10
2019-05-21T05:30:10.857Z,93.00
2019-05-21T05:32:42.379Z,92.80
2019-05-21T05:35:12.118Z,92.90
2019-05-21T05:37:45.273Z,93.10
2019-05-21T05:40:13.749Z,92.90
2019-05-21T05:42:43.955Z,93.10
2019-05-21T05:45:14.313Z,92.80
2019-05-21T05:47:43.988Z,92.80
2019-05-21T05:50:17.956Z,92.60
2019-05-21T05:52:47.733Z,92.40
2019-05-21T05:55:17.434Z,92.20
2019-05-21T05:57:47.124Z,92.50
2019-05-21T06:00:17.048Z,92.10
2019-05-21T06:02:47.185Z,91.60
2019-05-21T06:05:16.783Z,91.40
2019-05-21T06:07:58.747Z,91.70
2019-05-21T06:10:17.933Z,91.60
2019-05-21T06:12:48.035Z,90.80
2019-05-21T06:15:17.627Z,90.70
2019-05-21T06:17:49.245Z,90.90
2019-05-21T06:20:18.897Z,90.60
2019-05-21T06:22:48.445Z,90.00
2019-05-21T06:25:18.510Z,90.20
2019-05-21T06:27:48.538Z,89.70
2019-05-21T06:30:18.558Z,88.90
2019-05-21T06:32:48.279Z,87.60
2019-05-21T06:35:17.877Z,87.80
2019-05-21T06:37:47.453Z,87.60
2019-05-21T06:40:16.949Z,87.10
2019-05-21T06:42:46.320Z,86.50
2019-05-21T06:45:15.831Z,84.50
2019-05-21T06:47:45.359Z,84.60
2019-05-21T06:50:15.323Z,84.40
2019-05-21T06:52:44.907Z,83.40
2019-05-21T06:55:14.393Z,82.20
2019-05-21T06:57:43.907Z,82.20
2019-05-21T07:00:13.687Z,81.10
2019-05-21T07:02:43.117Z,80.90
2019-05-21T07:05:14.139Z,80.20
2019-05-21T07:07:43.605Z,80.30
2019-05-21T07:10:13.230Z,79.30
2019-05-21T07:12:42.722Z,79.60
2019-05-21T07:15:12.345Z,80.40
2019-05-21T07:17:41.801Z,80.90
2019-05-21T07:20:11.455Z,81.50
2019-05-21T07:22:41.126Z,80.90
2019-05-21T07:25:10.751Z,80.90
2019-05-21T07:27:40.447Z,80.40
2019-05-21T07:30:10.620Z,78.90
2019-05-21T07:32:40.387Z,76.70
2019-05-21T07:35:10.005Z,77.40
2019-05-21T07:37:39.593Z,76.80
2019-05-21T07:40:09.008Z,77.00
2019-05-21T07:42:38.630Z,76.80
2019-05-21T07:45:08.011Z,76.40
2019-05-21T07:47:37.603Z,75.90
2019-05-21T07:50:07.209Z,75.80
2019-05-21T07:52:36.753Z,74.90
2019-05-21T07:55:06.294Z,74.10
2019-05-21T07:57:35.875Z,70.30
2019-05-21T08:00:06.147Z,69.10
2019-05-21T08:02:35.689Z,67.70
2019-05-21T08:05:05.898Z,65.80
2019-05-21T08:07:37.090Z,64.20
2019-05-21T08:10:07.833Z,63.40
2019-05-21T08:12:39.717Z,61.70
2019-05-21T08:15:08.812Z,61.20
2019-05-21T08:17:38.265Z,59.90
2019-05-21T08:20:10.562Z,58.90
2019-05-21T08:22:40.685Z,57.20
2019-05-21T08:25:14.153Z,55.60
2019-05-21T08:27:42.151Z,53.90
2019-05-21T08:30:11.456Z,52.30
2019-05-21T08:32:41.036Z,50.50
2019-05-21T08:35:10.538Z,51.10
2019-05-21T08:37:40.027Z,52.30
2019-05-21T08:40:09.688Z,52.20
2019-05-21T08:42:39.365Z,50.50
2019-05-21T08:45:09.056Z,50.50
2019-05-21T08:47:38.807Z,50.30
2019-05-21T08:50:08.758Z,50.50
2019-05-21T08:52:38.589Z,49.80
2019-05-21T08:55:08.553Z,50.30
2019-05-21T08:57:38.397Z,51.80
2019-05-21T09:00:11.389Z,51.80
2019-05-21T09:02:40.826Z,52.00
2019-05-21T09:05:10.353Z,51.50
2019-05-21T09:07:40.252Z,50.10
2019-05-21T09:10:09.638Z,48.20
2019-05-21T09:12:39.290Z,46.70
2019-05-21T09:15:08.926Z,45.80
2019-05-21T09:17:38.809Z,45.90
2019-05-21T09:20:09.374Z,46.20
2019-05-21T09:22:38.989Z,46.10
2019-05-21T09:25:08.705Z,45.50
2019-05-21T09:27:38.511Z,44.80
2019-05-21T09:30:09.766Z,46.60
2019-05-21T09:32:39.471Z,48.20
2019-05-21T09:35:08.775Z,49.90
2019-05-21T09:37:38.810Z,51.30
2019-05-21T09:40:09.568Z,52.00
2019-05-21T09:42:39.549Z,51.00
2019-05-21T09:45:09.180Z,50.40
2019-05-21T09:47:39.209Z,50.20
2019-05-21T09:50:08.909Z,49.10
2019-05-21T09:52:39.687Z,48.50
2019-05-21T09:55:09.263Z,48.50
2019-05-21T09:57:57.909Z,47.50
2019-05-21T10:00:34.842Z,46.80
2019-05-21T10:03:05.994Z,46.70
2019-05-21T10:05:35.589Z,44.20
2019-05-21T10:08:05.269Z,44.90
2019-05-21T10:10:35.062Z,46.20
2019-05-21T10:13:04.650Z,45.80
2019-05-21T10:15:34.100Z,45.20
2019-05-21T10:18:03.558Z,43.70
2019-05-21T10:20:32.877Z,41.60
2019-05-21T10:23:02.469Z,40.20
2019-05-21T10:25:32.016Z,38.60
2019-05-21T10:28:01.382Z,38.60
2019-05-21T10:30:30.827Z,39.40
2019-05-21T10:33:00.763Z,36.80
2019-05-21T10:35:30.061Z,36.40
2019-05-21T10:37:59.456Z,35.60
2019-05-21T10:40:29.178Z,37.20
2019-05-21T10:42:58.654Z,36.50
2019-05-21T10:45:28.029Z,37.40
2019-05-21T10:47:57.517Z,39.20
2019-05-21T10:50:27.050Z,40.00
2019-05-21T10:52:56.505Z,41.10
2019-05-21T10:55:25.921Z,43.10
2019-05-21T10:57:55.556Z,42.70
2019-05-21T11:00:25.722Z,41.20
2019-05-21T11:03:08.889Z,42.80
2019-05-21T11:05:39.970Z,44.30
2019-05-21T11:08:25.510Z,45.90
2019-05-21T11:10:40.688Z,47.20
2019-05-21T11:13:10.348Z,47.40
2019-05-21T11:15:39.868Z,48.60
2019-05-21T11:18:11.393Z,49.70
2019-05-21T11:20:41.144Z,49.50
2019-05-21T11:23:10.783Z,49.50
2019-05-21T11:25:40.383Z,49.20
2019-05-21T11:28:09.996Z,49.50
2019-05-21T11:30:39.978Z,50.40
2019-05-21T11:33:09.490Z,51.60
2019-05-21T11:35:39.143Z,50.60
2019-05-21T11:38:08.815Z,49.90
2019-05-21T11:40:38.380Z,49.50
2019-05-21T11:43:12.280Z,48.80
2019-05-21T11:45:41.797Z,50.20
2019-05-21T11:48:12.342Z,49.60
2019-05-21T11:50:42.959Z,48.50
2019-05-21T11:53:12.805Z,48.00
2019-05-21T11:55:42.301Z,47.90
2019-05-21T11:58:11.867Z,47.00
2019-05-21T12:00:41.639Z,45.90
2019-05-21T12:03:11.371Z,45.20
2019-05-21T12:05:41.079Z,44.00
2019-05-21T12:08:12.593Z,45.50
2019-05-21T12:10:42.499Z,45.00
2019-05-21T12:13:12.218Z,45.30
2019-05-21T12:15:42.797Z,45.60
2019-05-21T12:18:12.366Z,45.50
2019-05-21T12:20:41.984Z,46.50
2019-05-21T12:23:11.666Z,47.10
2019-05-21T12:25:41.298Z,46.30
2019-05-21T12:28:11.488Z,47.00
2019-05-21T12:30:41.267Z,48.40
2019-05-21T12:33:10.792Z,48.00
2019-05-21T12:35:40.932Z,48.40
2019-05-21T12:38:10.898Z,49.90
2019-05-21T12:40:40.423Z,50.40
2019-05-21T12:43:11.196Z,51.20
2019-05-21T12:45:41.086Z,51.00
2019-05-21T12:48:11.275Z,50.00
2019-05-21T12:50:40.954Z,48.80
2019-05-21T12:53:10.685Z,48.20
2019-05-21T12:55:40.609Z,49.50
2019-05-21T12:58:10.724Z,47.60
2019-05-21T13:00:40.243Z,48.20
2019-05-21T13:03:09.838Z,50.30
2019-05-21T13:05:39.677Z,50.10
2019-05-21T13:08:09.529Z,50.50
2019-05-21T13:10:39.143Z,50.80
2019-05-21T13:13:08.791Z,51.70
2019-05-21T13:15:38.705Z,52.10
2019-05-21T13:18:09.046Z,52.30
2019-05-21T13:20:38.987Z,52.70
2019-05-21T13:23:08.721Z,51.50
2019-05-21T13:25:38.472Z,51.40
2019-05-21T13:28:08.114Z,51.20
2019-05-21T13:30:37.999Z,51.10
2019-05-21T13:33:07.810Z,51.80
2019-05-21T13:35:37.351Z,53.30
2019-05-21T13:38:06.856Z,53.40
2019-05-21T13:40:37.330Z,53.40
2019-05-21T13:43:07.027Z,52.30
2019-05-21T13:45:36.862Z,52.50
2019-05-21T13:48:06.889Z,52.60
2019-05-21T13:50:36.817Z,51.50
2019-05-21T13:53:06.556Z,50.20
2019-05-21T13:55:36.316Z,48.30
2019-05-21T13:58:06.021Z,49.30
2019-05-21T14:00:49.349Z,50.10
2019-05-21T14:03:18.855Z,49.20
2019-05-21T14:05:48.668Z,47.60
2019-05-21T14:08:18.590Z,46.70
2019-05-21T14:10:48.107Z,45.20
2019-05-21T14:13:18.100Z,44.60
2019-05-21T14:15:47.725Z,44.10
2019-05-21T14:18:17.358Z,44.50
2019-05-21T14:20:46.969Z,43.90
2019-05-21T14:23:16.816Z,43.30
2019-05-21T14:25:46.302Z,41.90
2019-05-21T14:28:15.803Z,40.70
2019-05-21T14:30:45.475Z,41.50
2019-05-21T14:33:15.169Z,41.70
2019-05-21T14:35:44.476Z,41.60
2019-05-21T14:38:13.973Z,41.90
2019-05-21T14:40:43.651Z,43.00
2019-05-21T14:43:13.292Z,43.70
2019-05-21T14:45:42.754Z,44.40
2019-05-21T14:48:12.362Z,44.90
2019-05-21T14:50:42.017Z,45.00
2019-05-21T14:53:11.840Z,45.20
2019-05-21T14:55:41.430Z,45.20
2019-05-21T14:58:11.453Z,47.10
2019-05-21T15:00:42.071Z,47.50
2019-05-21T15:03:24.740Z,47.60
2019-05-21T15:05:43.865Z,48.20
2019-05-21T15:08:13.566Z,48.60
2019-05-21T15:10:48.515Z,49.10
2019-05-21T15:13:14.316Z,49.10
2019-05-21T15:15:43.947Z,49.60
2019-05-21T15:18:20.734Z,48.70
2019-05-21T15:20:55.849Z,48.30
2019-05-21T15:23:27.121Z,48.10
2019-05-21T15:25:56.731Z,48.30
2019-05-21T15:28:26.524Z,48.70
2019-05-21T15:30:56.427Z,48.70
2019-05-21T15:33:26.245Z,49.10
2019-05-21T15:35:56.187Z,49.70
2019-05-21T15:38:26.783Z,50.30
2019-05-21T15:41:09.534Z,51.00
2019-05-21T15:43:29.387Z,51.50
2019-05-21T15:45:59.245Z,52.10
2019-05-21T15:48:29.001Z,52.90
2019-05-21T15:50:58.853Z,53.10
2019-05-21T15:53:28.419Z,53.10
2019-05-21T15:55:57.976Z,52.80
2019-05-21T15:58:27.673Z,52.50
2019-05-21T16:00:57.367Z,51.80
2019-05-21T16:03:26.963Z,52.70
2019-05-21T16:05:56.771Z,53.90
2019-05-21T16:08:28.032Z,54.10
2019-05-21T16:10:58.348Z,56.20
2019-05-21T16:13:27.889Z,55.80
2019-05-21T16:15:57.264Z,58.10
2019-05-21T16:18:26.937Z,59.80
2019-05-21T16:20:57.877Z,61.40
2019-05-21T16:23:27.352Z,64.80
2019-05-21T16:25:57.215Z,70.40
2019-05-21T16:28:27.823Z,75.10
2019-05-21T16:30:57.710Z,79.80
2019-05-21T16:33:27.513Z,84.60
2019-05-21T16:35:58.316Z,86.70
2019-05-21T16:38:27.917Z,89.00
2019-05-21T16:40:57.816Z,89.20
2019-05-21T16:43:27.387Z,89.50
2019-05-21T16:45:57.130Z,90.10
2019-05-21T16:48:26.967Z,90.20
2019-05-21T16:50:56.853Z,90.50
2019-05-21T16:53:26.690Z,90.80
2019-05-21T16:55:56.804Z,90.70
2019-05-21T16:58:26.348Z,91.10
2019-05-21T17:00:55.958Z,90.50
2019-05-21T17:03:26.022Z,90.00
2019-05-21T17:05:55.816Z,89.70
2019-05-21T17:08:25.491Z,89.20
2019-05-21T17:10:55.034Z,90.00
2019-05-21T17:13:24.655Z,89.80
2019-05-21T17:15:54.384Z,90.10
2019-05-21T17:18:23.894Z,90.20
2019-05-21T17:20:53.468Z,89.30
2019-05-21T17:23:22.970Z,90.30
2019-05-21T17:25:52.824Z,89.00
2019-05-21T17:28:22.264Z,89.10
2019-05-21T17:30:52.242Z,90.30
2019-05-21T17:33:22.018Z,90.30
2019-05-21T17:35:51.742Z,90.20
2019-05-21T17:38:24.410Z,90.80
2019-05-21T17:40:53.074Z,90.60
2019-05-21T17:43:22.783Z,91.00
2019-05-21T17:45:52.743Z,91.00
2019-05-21T17:48:22.495Z,91.40
2019-05-21T17:50:52.390Z,91.20
2019-05-21T17:53:22.395Z,91.60
2019-05-21T17:55:52.206Z,91.90
2019-05-21T17:58:21.896Z,92.50
2019-05-21T18:00:55.631Z,92.40
2019-05-21T18:03:25.886Z,92.50
2019-05-21T18:05:56.318Z,92.50
2019-05-21T18:08:26.387Z,92.00
2019-05-21T18:10:56.623Z,92.00
2019-05-21T18:13:27.323Z,92.40
2019-05-21T18:15:58.079Z,93.00
2019-05-21T18:18:28.133Z,93.50
2019-05-21T18:20:57.741Z,93.70
2019-05-21T18:23:28.145Z,94.00
2019-05-21T18:25:57.996Z,94.50
2019-05-21T18:28:27.721Z,94.10
2019-05-21T18:30:57.326Z,94.10
2019-05-21T18:33:27.441Z,94.10
2019-05-21T18:35:57.931Z,94.40
2019-05-21T18:38:27.675Z,94.00
2019-05-21T18:40:57.322Z,93.80
2019-05-21T18:43:27.238Z,93.80
2019-05-21T18:45:56.867Z,93.60
2019-05-21T18:48:26.804Z,93.50
2019-05-21T18:50:56.587Z,92.60
2019-05-21T18:53:26.231Z,93.00
2019-05-21T18:55:55.759Z,93.00
2019-05-21T18:58:25.462Z,93.10
2019-05-21T19:00:55.006Z,93.30
2019-05-21T19:03:25.856Z,93.20
2019-05-21T19:05:55.815Z,92.60
2019-05-21T19:08:26.608Z,92.80
2019-05-21T19:10:56.512Z,92.80
2019-05-21T19:13:26.670Z,91.90
2019-05-21T19:15:57.067Z,92.00
2019-05-21T19:18:26.810Z,91.30
2019-05-21T19:20:56.566Z,91.10
2019-05-21T19:23:26.304Z,90.70
2019-05-21T19:25:55.835Z,90.90
2019-05-21T19:28:25.709Z,91.60
2019-05-21T19:30:56.016Z,91.60
2019-05-21T19:33:25.728Z,91.90
2019-05-21T19:35:58.430Z,91.70
2019-05-21T19:38:27.993Z,92.30
2019-05-21T19:40:57.728Z,92.20
2019-05-21T19:43:27.403Z,92.70
2019-05-21T19:45:57.065Z,93.50
2019-05-21T19:48:37.982Z,94.00
2019-05-21T19:51:07.651Z,95.40
2019-05-21T19:53:37.317Z,96.10
2019-05-21T19:56:07.364Z,96.50
2019-05-21T19:58:37.005Z,97.40
2019-05-21T20:01:06.598Z,98.10
2019-05-21T20:03:36.743Z,97.40
2019-05-21T20:06:06.947Z,97.00
2019-05-21T20:08:37.121Z,96.70
2019-05-21T20:11:07.534Z,97.00
2019-05-21T20:13:37.430Z,97.10
2019-05-21T20:16:08.205Z,97.60
2019-05-21T20:18:37.914Z,97.80
2019-05-21T20:21:09.066Z,98.00
2019-05-21T20:23:38.881Z,98.10
2019-05-21T20:26:10.750Z,98.20
2019-05-21T20:28:40.482Z,98.30
2019-05-21T20:31:10.205Z,98.80
2019-05-21T20:33:40.398Z,98.90
2019-05-21T20:36:11.090Z,99.60
2019-05-21T20:38:41.186Z,99.90
2019-05-21T20:41:11.254Z,99.90
2019-05-21T20:43:41.188Z,99.90
2019-05-21T20:46:11.036Z,99.90
2019-05-21T20:48:40.857Z,99.90
2019-05-21T20:51:10.516Z,99.90
2019-05-21T20:53:39.954Z,99.90
2019-05-21T20:56:10.102Z,99.90
2019-05-21T20:58:39.995Z,99.90
2019-05-21T21:01:09.665Z,99.90
2019-05-21T21:03:40.807Z,99.90
2019-05-21T21:06:10.961Z,99.90
2019-05-21T21:08:40.436Z,99.90
2019-05-21T21:11:11.208Z,99.90
2019-05-21T21:13:41.473Z,99.90
2019-05-21T21:16:11.544Z,99.90
2019-05-21T21:18:41.187Z,99.90
2019-05-21T21:21:10.677Z,99.90
2019-05-21T21:23:41.765Z,99.90
2019-05-21T21:26:12.412Z,99.90
2019-05-21T21:28:42.254Z,99.90
2019-05-21T21:31:11.752Z,99.90
2019-05-21T21:33:41.299Z,99.90
2019-05-21T21:36:11.262Z,99.90
2019-05-21T21:38:40.674Z,99.90
2019-05-21T21:41:14.038Z,99.90
2019-05-21T21:43:43.742Z,99.90
2019-05-21T21:46:17.390Z,99.90
2019-05-21T21:48:47.207Z,99.90
2019-05-21T21:51:18.200Z,99.90
2019-05-21T21:53:48.940Z,99.90
2019-05-21T21:56:18.818Z,99.90
2019-05-21T21:58:48.352Z,99.90
2019-05-21T22:01:37.145Z,99.90
2019-05-21T22:04:08.594Z,99.90
2019-05-21T22:06:38.914Z,99.90
2019-05-21T22:09:10.320Z,99.90
2019-05-21T22:11:40.563Z,99.90
2019-05-21T22:14:10.440Z,99.90
2019-05-21T22:16:40.176Z,99.90
2019-05-21T22:19:10.512Z,99.90
2019-05-21T22:21:40.353Z,99.90
2019-05-21T22:24:10.224Z,99.90
2019-05-21T22:26:39.745Z,99.90
2019-05-21T22:29:10.821Z,99.90
2019-05-21T22:31:41.527Z,99.90
2019-05-21T22:34:11.086Z,99.90
2019-05-21T22:36:41.946Z,99.90
2019-05-21T22:39:13.158Z,99.90
2019-05-21T22:41:42.905Z,99.90
2019-05-21T22:44:12.666Z,99.90
2019-05-21T22:46:42.358Z,99.90
2019-05-21T22:49:12.035Z,99.90
2019-05-21T22:51:41.585Z,99.90
2019-05-21T22:54:11.356Z,99.90
2019-05-21T22:56:40.866Z,99.90
2019-05-21T22:59:10.429Z,99.90
2019-05-21T23:01:40.272Z,99.90
2019-05-21T23:04:09.904Z,99.90
2019-05-21T23:06:39.456Z,99.90
2019-05-21T23:09:09.303Z,99.90
2019-05-21T23:11:38.923Z,99.90
2019-05-21T23:14:08.442Z,99.90
2019-05-21T23:16:38.990Z,99.90
2019-05-21T23:19:25.414Z,99.90
2019-05-21T23:21:59.484Z,99.90
2019-05-21T23:24:29.854Z,99.90
2019-05-21T23:26:59.611Z,99.90
2019-05-21T23:29:29.322Z,99.90
2019-05-21T23:31:59.650Z,99.90
2019-05-21T23:34:29.428Z,99.90
2019-05-21T23:36:59.161Z,99.90
2019-05-21T23:39:28.620Z,99.90
2019-05-21T23:41:58.110Z,99.90
2019-05-21T23:44:27.759Z,99.90
2019-05-21T23:46:58.725Z,99.90
2019-05-21T23:49:28.339Z,99.90
2019-05-21T23:51:58.054Z,99.90
2019-05-21T23:54:27.617Z,99.90
2019-05-21T23:56:58.042Z,99.90
2019-05-21T23:59:28.007Z,99.90
